sensor_id;sensor_type;location;lat;lon;timestamp;temperature;humidity
14397;DHT22;50653;47.810;13.022;2023-08-17T00:01:34;21.00;99.90
14397;DHT22;50653;47.810;13.022;2023-08-17T00:04:00;21.00;99.90
14397;DHT22;50653;47.810;13.022;2023-08-17T00:06:26;21.00;99.90
14397;DHT22;50653;47.810;13.022;2023-08-17T00:08:51;21.00;99.90
14397;DHT22;50653;47.810;13.022;2023-08-17T00:11:17;21.00;99.90
14397;DHT22;50653;47.810;13.022;2023-08-17T00:13:43;20.90;99.90
14397;DHT22;50653;47.810;13.022;2023-08-17T00:16:08;20.90;99.90
14397;DHT22;50653;47.810;13.022;2023-08-17T00:18:34;20.90;99.90
14397;DHT22;50653;47.810;13.022;2023-08-17T00:21:00;20.90;99.90
14397;DHT22;50653;47.810;13.022;2023-08-17T00:23:25;20.90;99.90
14397;DHT22;50653;47.810;13.022;2023-08-17T00:25:51;20.90;99.90
14397;DHT22;50653;47.810;13.022;2023-08-17T00:28:17;20.90;99.90
14397;DHT22;50653;47.810;13.022;2023-08-17T00:30:42;20.90;99.90
14397;DHT22;50653;47.810;13.022;2023-08-17T00:33:08;20.80;99.90
14397;DHT22;50653;47.810;13.022;2023-08-17T00:35:34;20.70;99.90
14397;DHT22;50653;47.810;13.022;2023-08-17T00:38:00;20.70;99.90
14397;DHT22;50653;47.810;13.022;2023-08-17T00:40:26;20.70;99.90
14397;DHT22;50653;47.810;13.022;2023-08-17T00:42:51;20.70;99.90
14397;DHT22;50653;47.810;13.022;2023-08-17T00:45:18;20.70;99.90
14397;DHT22;50653;47.810;13.022;2023-08-17T00:47:44;20.60;99.90
14397;DHT22;50653;47.810;13.022;2023-08-17T00:50:11;20.60;99.90
14397;DHT22;50653;47.810;13.022;2023-08-17T00:52:38;20.60;99.90
14397;DHT22;50653;47.810;13.022;2023-08-17T00:55:05;20.60;99.90
14397;DHT22;50653;47.810;13.022;2023-08-17T00:57:32;20.50;99.90
14397;DHT22;50653;47.810;13.022;2023-08-17T00:59:59;20.40;99.90
14397;DHT22;50653;47.810;13.022;2023-08-17T01:02:25;20.40;99.90
14397;DHT22;50653;47.810;13.022;2023-08-17T01:04:52;20.50;99.90
14397;DHT22;50653;47.810;13.022;2023-08-17T01:07:18;20.40;99.90
14397;DHT22;50653;47.810;13.022;2023-08-17T01:09:44;20.40;99.90
14397;DHT22;50653;47.810;13.022;2023-08-17T01:12:38;20.40;99.90
14397;DHT22;50653;47.810;13.022;2023-08-17T01:15:22;20.30;99.90
14397;DHT22;50653;47.810;13.022;2023-08-17T01:18:08;20.30;99.90
14397;DHT22;50653;47.810;13.022;2023-08-17T01:20:37;20.30;99.90
14397;DHT22;50653;47.810;13.022;2023-08-17T01:23:05;20.30;99.90
14397;DHT22;50653;47.810;13.022;2023-08-17T01:25:32;20.30;99.90
14397;DHT22;50653;47.810;13.022;2023-08-17T01:28:02;20.20;99.90
14397;DHT22;50653;47.810;13.022;2023-08-17T01:30:30;20.20;99.90
14397;DHT22;50653;47.810;13.022;2023-08-17T01:33:07;20.10;99.90
14397;DHT22;50653;47.810;13.022;2023-08-17T01:35:39;20.10;99.90
14397;DHT22;50653;47.810;13.022;2023-08-17T01:38:12;20.10;99.90
14397;DHT22;50653;47.810;13.022;2023-08-17T01:40:38;20.00;99.90
14397;DHT22;50653;47.810;13.022;2023-08-17T01:43:03;20.10;99.90
14397;DHT22;50653;47.810;13.022;2023-08-17T01:45:30;20.10;99.90
14397;DHT22;50653;47.810;13.022;2023-08-17T01:47:55;20.10;99.90
14397;DHT22;50653;47.810;13.022;2023-08-17T01:50:21;20.10;99.90
14397;DHT22;50653;47.810;13.022;2023-08-17T01:52:49;20.10;99.90
14397;DHT22;50653;47.810;13.022;2023-08-17T01:55:21;20.10;99.90
14397;DHT22;50653;47.810;13.022;2023-08-17T01:57:47;20.00;99.90
14397;DHT22;50653;47.810;13.022;2023-08-17T02:00:13;20.00;99.90
14397;DHT22;50653;47.810;13.022;2023-08-17T02:02:42;19.80;99.90
14397;DHT22;50653;47.810;13.022;2023-08-17T02:05:08;19.80;99.90
14397;DHT22;50653;47.810;13.022;2023-08-17T02:07:33;19.70;99.90
14397;DHT22;50653;47.810;13.022;2023-08-17T02:09:59;19.70;99.90
14397;DHT22;50653;47.810;13.022;2023-08-17T02:12:25;19.60;99.90
14397;DHT22;50653;47.810;13.022;2023-08-17T02:14:51;19.30;99.90
14397;DHT22;50653;47.810;13.022;2023-08-17T02:17:18;19.10;99.90
14397;DHT22;50653;47.810;13.022;2023-08-17T02:19:45;19.10;99.90
14397;DHT22;50653;47.810;13.022;2023-08-17T02:22:12;19.20;99.90
14397;DHT22;50653;47.810;13.022;2023-08-17T02:24:38;19.30;99.90
14397;DHT22;50653;47.810;13.022;2023-08-17T02:27:04;19.40;99.90
14397;DHT22;50653;47.810;13.022;2023-08-17T02:29:30;19.30;99.90
14397;DHT22;50653;47.810;13.022;2023-08-17T02:31:55;19.40;99.90
14397;DHT22;50653;47.810;13.022;2023-08-17T02:34:21;19.30;99.90
14397;DHT22;50653;47.810;13.022;2023-08-17T02:36:47;19.40;99.90
14397;DHT22;50653;47.810;13.022;2023-08-17T02:39:12;19.40;99.90
14397;DHT22;50653;47.810;13.022;2023-08-17T02:41:38;19.20;99.90
14397;DHT22;50653;47.810;13.022;2023-08-17T02:44:04;19.20;99.90
14397;DHT22;50653;47.810;13.022;2023-08-17T02:46:30;19.20;99.90
14397;DHT22;50653;47.810;13.022;2023-08-17T02:48:56;19.40;99.90
14397;DHT22;50653;47.810;13.022;2023-08-17T02:51:21;19.40;99.90
14397;DHT22;50653;47.810;13.022;2023-08-17T02:53:47;19.30;99.90
14397;DHT22;50653;47.810;13.022;2023-08-17T02:56:13;19.40;99.90
14397;DHT22;50653;47.810;13.022;2023-08-17T02:58:39;19.40;99.90
14397;DHT22;50653;47.810;13.022;2023-08-17T03:01:07;19.30;99.90
14397;DHT22;50653;47.810;13.022;2023-08-17T03:03:34;19.30;99.90
14397;DHT22;50653;47.810;13.022;2023-08-17T03:06:00;19.30;99.90
14397;DHT22;50653;47.810;13.022;2023-08-17T03:08:25;19.40;99.90
14397;DHT22;50653;47.810;13.022;2023-08-17T03:10:52;19.20;99.90
14397;DHT22;50653;47.810;13.022;2023-08-17T03:13:17;19.20;99.90
14397;DHT22;50653;47.810;13.022;2023-08-17T03:15:43;19.20;99.90
14397;DHT22;50653;47.810;13.022;2023-08-17T03:18:09;19.20;99.90
14397;DHT22;50653;47.810;13.022;2023-08-17T03:20:37;19.20;99.90
14397;DHT22;50653;47.810;13.022;2023-08-17T03:23:02;19.30;99.90
14397;DHT22;50653;47.810;13.022;2023-08-17T03:25:32;19.30;99.90
14397;DHT22;50653;47.810;13.022;2023-08-17T03:27:59;19.20;99.90
14397;DHT22;50653;47.810;13.022;2023-08-17T03:30:25;19.30;99.90
14397;DHT22;50653;47.810;13.022;2023-08-17T03:32:50;19.30;99.90
14397;DHT22;50653;47.810;13.022;2023-08-17T03:35:16;19.30;99.90
14397;DHT22;50653;47.810;13.022;2023-08-17T03:37:42;19.30;99.90
14397;DHT22;50653;47.810;13.022;2023-08-17T03:40:09;19.20;99.90
14397;DHT22;50653;47.810;13.022;2023-08-17T03:42:35;19.20;99.90
14397;DHT22;50653;47.810;13.022;2023-08-17T03:45:02;19.20;99.90
14397;DHT22;50653;47.810;13.022;2023-08-17T03:47:28;19.20;99.90
14397;DHT22;50653;47.810;13.022;2023-08-17T03:49:54;19.30;99.90
14397;DHT22;50653;47.810;13.022;2023-08-17T03:52:20;19.10;99.90
14397;DHT22;50653;47.810;13.022;2023-08-17T03:54:47;19.10;99.90
14397;DHT22;50653;47.810;13.022;2023-08-17T03:57:12;19.00;99.90
14397;DHT22;50653;47.810;13.022;2023-08-17T03:59:38;19.00;99.90
14397;DHT22;50653;47.810;13.022;2023-08-17T04:02:04;19.00;99.90
14397;DHT22;50653;47.810;13.022;2023-08-17T04:04:29;19.00;99.90
14397;DHT22;50653;47.810;13.022;2023-08-17T04:06:56;19.00;99.90
14397;DHT22;50653;47.810;13.022;2023-08-17T04:09:22;19.00;99.90
14397;DHT22;50653;47.810;13.022;2023-08-17T04:11:48;19.00;99.90
14397;DHT22;50653;47.810;13.022;2023-08-17T04:14:13;19.00;99.90
14397;DHT22;50653;47.810;13.022;2023-08-17T04:16:39;19.00;99.90
14397;DHT22;50653;47.810;13.022;2023-08-17T04:19:05;19.00;99.90
14397;DHT22;50653;47.810;13.022;2023-08-17T04:21:31;19.00;99.90
14397;DHT22;50653;47.810;13.022;2023-08-17T04:23:57;19.10;99.90
14397;DHT22;50653;47.810;13.022;2023-08-17T04:26:22;19.10;99.90
14397;DHT22;50653;47.810;13.022;2023-08-17T04:28:49;19.00;99.90
14397;DHT22;50653;47.810;13.022;2023-08-17T04:31:16;19.00;99.90
14397;DHT22;50653;47.810;13.022;2023-08-17T04:33:44;18.90;99.90
14397;DHT22;50653;47.810;13.022;2023-08-17T04:36:10;18.90;99.90
14397;DHT22;50653;47.810;13.022;2023-08-17T04:38:37;18.90;99.90
14397;DHT22;50653;47.810;13.022;2023-08-17T04:41:02;19.00;99.90
14397;DHT22;50653;47.810;13.022;2023-08-17T04:43:29;19.10;99.90
14397;DHT22;50653;47.810;13.022;2023-08-17T04:45:55;19.20;99.90
14397;DHT22;50653;47.810;13.022;2023-08-17T04:48:21;19.20;99.90
14397;DHT22;50653;47.810;13.022;2023-08-17T04:50:48;19.10;99.90
14397;DHT22;50653;47.810;13.022;2023-08-17T04:53:15;19.10;99.90
14397;DHT22;50653;47.810;13.022;2023-08-17T04:55:40;19.10;99.90
14397;DHT22;50653;47.810;13.022;2023-08-17T04:58:06;19.20;99.90
14397;DHT22;50653;47.810;13.022;2023-08-17T05:00:32;19.20;99.90
14397;DHT22;50653;47.810;13.022;2023-08-17T05:02:59;19.10;99.90
14397;DHT22;50653;47.810;13.022;2023-08-17T05:05:30;19.20;99.90
14397;DHT22;50653;47.810;13.022;2023-08-17T05:07:56;19.30;99.90
14397;DHT22;50653;47.810;13.022;2023-08-17T05:10:22;19.30;99.90
14397;DHT22;50653;47.810;13.022;2023-08-17T05:12:47;19.40;99.90
14397;DHT22;50653;47.810;13.022;2023-08-17T05:15:13;19.40;99.90
14397;DHT22;50653;47.810;13.022;2023-08-17T05:17:39;19.40;99.90
14397;DHT22;50653;47.810;13.022;2023-08-17T05:20:06;19.50;99.90
14397;DHT22;50653;47.810;13.022;2023-08-17T05:22:33;19.50;99.90
14397;DHT22;50653;47.810;13.022;2023-08-17T05:24:59;19.50;99.90
14397;DHT22;50653;47.810;13.022;2023-08-17T05:27:26;19.60;99.90
14397;DHT22;50653;47.810;13.022;2023-08-17T05:29:52;19.70;99.90
14397;DHT22;50653;47.810;13.022;2023-08-17T05:32:18;19.70;99.90
14397;DHT22;50653;47.810;13.022;2023-08-17T05:34:46;19.70;99.90
14397;DHT22;50653;47.810;13.022;2023-08-17T05:37:12;19.80;99.90
14397;DHT22;50653;47.810;13.022;2023-08-17T05:39:39;19.90;99.90
14397;DHT22;50653;47.810;13.022;2023-08-17T05:42:06;19.90;99.90
14397;DHT22;50653;47.810;13.022;2023-08-17T05:44:32;19.90;99.90
14397;DHT22;50653;47.810;13.022;2023-08-17T05:46:58;20.00;99.90
14397;DHT22;50653;47.810;13.022;2023-08-17T05:49:25;20.10;99.90
14397;DHT22;50653;47.810;13.022;2023-08-17T05:51:50;20.20;99.90
14397;DHT22;50653;47.810;13.022;2023-08-17T05:54:16;20.20;99.90
14397;DHT22;50653;47.810;13.022;2023-08-17T05:56:42;20.30;99.90
14397;DHT22;50653;47.810;13.022;2023-08-17T05:59:12;20.30;99.90
14397;DHT22;50653;47.810;13.022;2023-08-17T06:01:37;20.40;99.90
14397;DHT22;50653;47.810;13.022;2023-08-17T06:04:04;20.50;99.90
14397;DHT22;50653;47.810;13.022;2023-08-17T06:06:30;20.50;99.90
14397;DHT22;50653;47.810;13.022;2023-08-17T06:08:55;20.60;99.90
14397;DHT22;50653;47.810;13.022;2023-08-17T06:11:21;20.60;99.90
14397;DHT22;50653;47.810;13.022;2023-08-17T06:13:47;20.60;99.90
14397;DHT22;50653;47.810;13.022;2023-08-17T06:16:12;20.70;99.90
14397;DHT22;50653;47.810;13.022;2023-08-17T06:18:39;20.70;99.90
14397;DHT22;50653;47.810;13.022;2023-08-17T06:21:04;20.80;99.90
14397;DHT22;50653;47.810;13.022;2023-08-17T06:23:30;20.80;99.90
14397;DHT22;50653;47.810;13.022;2023-08-17T06:25:58;20.80;99.90
14397;DHT22;50653;47.810;13.022;2023-08-17T06:28:25;20.80;99.90
14397;DHT22;50653;47.810;13.022;2023-08-17T06:30:55;20.80;99.90
14397;DHT22;50653;47.810;13.022;2023-08-17T06:33:21;20.90;99.90
14397;DHT22;50653;47.810;13.022;2023-08-17T06:35:48;21.00;99.90
14397;DHT22;50653;47.810;13.022;2023-08-17T06:38:13;21.00;99.90
14397;DHT22;50653;47.810;13.022;2023-08-17T06:40:39;21.10;99.90
14397;DHT22;50653;47.810;13.022;2023-08-17T06:43:04;21.20;99.90
14397;DHT22;50653;47.810;13.022;2023-08-17T06:45:34;21.20;99.90
14397;DHT22;50653;47.810;13.022;2023-08-17T06:47:59;21.30;99.90
14397;DHT22;50653;47.810;13.022;2023-08-17T06:50:25;21.30;99.90
14397;DHT22;50653;47.810;13.022;2023-08-17T06:52:52;21.40;99.90
14397;DHT22;50653;47.810;13.022;2023-08-17T06:55:18;21.50;99.90
14397;DHT22;50653;47.810;13.022;2023-08-17T06:57:43;21.50;99.90
14397;DHT22;50653;47.810;13.022;2023-08-17T07:00:10;21.60;99.90
14397;DHT22;50653;47.810;13.022;2023-08-17T07:02:38;21.60;99.90
14397;DHT22;50653;47.810;13.022;2023-08-17T07:05:04;21.60;99.90
14397;DHT22;50653;47.810;13.022;2023-08-17T07:07:30;21.70;99.90
14397;DHT22;50653;47.810;13.022;2023-08-17T07:09:59;21.70;99.90
14397;DHT22;50653;47.810;13.022;2023-08-17T07:12:24;21.70;99.90
14397;DHT22;50653;47.810;13.022;2023-08-17T07:14:50;21.80;99.90
14397;DHT22;50653;47.810;13.022;2023-08-17T07:17:16;21.90;99.90
14397;DHT22;50653;47.810;13.022;2023-08-17T07:19:42;21.90;99.90
14397;DHT22;50653;47.810;13.022;2023-08-17T07:22:08;22.00;99.90
14397;DHT22;50653;47.810;13.022;2023-08-17T07:24:33;22.10;99.90
14397;DHT22;50653;47.810;13.022;2023-08-17T07:26:59;22.20;99.90
14397;DHT22;50653;47.810;13.022;2023-08-17T07:29:25;22.20;99.90
14397;DHT22;50653;47.810;13.022;2023-08-17T07:31:51;22.30;99.90
14397;DHT22;50653;47.810;13.022;2023-08-17T07:34:16;22.30;99.90
14397;DHT22;50653;47.810;13.022;2023-08-17T07:36:42;22.30;99.90
14397;DHT22;50653;47.810;13.022;2023-08-17T07:39:08;22.40;99.90
14397;DHT22;50653;47.810;13.022;2023-08-17T07:41:33;22.50;99.90
14397;DHT22;50653;47.810;13.022;2023-08-17T07:43:59;22.50;99.90
14397;DHT22;50653;47.810;13.022;2023-08-17T07:46:25;22.50;99.90
14397;DHT22;50653;47.810;13.022;2023-08-17T07:48:50;22.60;99.90
14397;DHT22;50653;47.810;13.022;2023-08-17T07:51:16;22.60;99.90
14397;DHT22;50653;47.810;13.022;2023-08-17T07:53:42;22.80;99.90
14397;DHT22;50653;47.810;13.022;2023-08-17T07:56:07;22.80;99.90
14397;DHT22;50653;47.810;13.022;2023-08-17T07:58:33;22.80;99.90
14397;DHT22;50653;47.810;13.022;2023-08-17T08:00:58;22.90;99.90
14397;DHT22;50653;47.810;13.022;2023-08-17T08:03:24;23.00;99.90
14397;DHT22;50653;47.810;13.022;2023-08-17T08:05:50;23.00;99.90
14397;DHT22;50653;47.810;13.022;2023-08-17T08:08:15;23.10;99.90
14397;DHT22;50653;47.810;13.022;2023-08-17T08:10:43;23.10;99.90
14397;DHT22;50653;47.810;13.022;2023-08-17T08:13:09;23.20;99.90
14397;DHT22;50653;47.810;13.022;2023-08-17T08:15:35;23.20;99.90
14397;DHT22;50653;47.810;13.022;2023-08-17T08:18:00;23.20;99.90
14397;DHT22;50653;47.810;13.022;2023-08-17T08:20:26;23.30;99.90
14397;DHT22;50653;47.810;13.022;2023-08-17T08:22:52;23.40;99.90
14397;DHT22;50653;47.810;13.022;2023-08-17T08:25:17;23.40;99.90
14397;DHT22;50653;47.810;13.022;2023-08-17T08:27:43;23.40;99.90
14397;DHT22;50653;47.810;13.022;2023-08-17T08:30:09;23.40;99.90
14397;DHT22;50653;47.810;13.022;2023-08-17T08:32:34;23.40;99.90
14397;DHT22;50653;47.810;13.022;2023-08-17T08:35:00;23.50;99.90
14397;DHT22;50653;47.810;13.022;2023-08-17T08:37:26;23.50;99.90
14397;DHT22;50653;47.810;13.022;2023-08-17T08:39:53;23.60;99.90
14397;DHT22;50653;47.810;13.022;2023-08-17T08:42:19;23.70;99.90
14397;DHT22;50653;47.810;13.022;2023-08-17T08:44:45;23.80;99.90
14397;DHT22;50653;47.810;13.022;2023-08-17T08:47:12;23.80;99.90
14397;DHT22;50653;47.810;13.022;2023-08-17T08:49:54;23.70;99.90
14397;DHT22;50653;47.810;13.022;2023-08-17T08:52:23;23.80;99.90
14397;DHT22;50653;47.810;13.022;2023-08-17T08:54:50;23.80;99.90
14397;DHT22;50653;47.810;13.022;2023-08-17T08:57:17;23.80;99.90
14397;DHT22;50653;47.810;13.022;2023-08-17T08:59:45;24.00;99.90
14397;DHT22;50653;47.810;13.022;2023-08-17T09:02:15;24.00;99.90
14397;DHT22;50653;47.810;13.022;2023-08-17T09:04:43;24.10;99.90
14397;DHT22;50653;47.810;13.022;2023-08-17T09:07:11;24.10;99.90
14397;DHT22;50653;47.810;13.022;2023-08-17T09:09:38;24.20;99.90
14397;DHT22;50653;47.810;13.022;2023-08-17T09:12:06;24.20;99.90
14397;DHT22;50653;47.810;13.022;2023-08-17T09:14:32;24.30;99.90
14397;DHT22;50653;47.810;13.022;2023-08-17T09:16:58;24.30;99.90
14397;DHT22;50653;47.810;13.022;2023-08-17T09:19:24;24.20;99.90
14397;DHT22;50653;47.810;13.022;2023-08-17T09:21:50;24.40;99.90
14397;DHT22;50653;47.810;13.022;2023-08-17T09:24:16;24.50;99.90
14397;DHT22;50653;47.810;13.022;2023-08-17T09:26:42;24.40;99.90
14397;DHT22;50653;47.810;13.022;2023-08-17T09:29:20;24.60;99.90
14397;DHT22;50653;47.810;13.022;2023-08-17T09:31:47;24.70;99.90
14397;DHT22;50653;47.810;13.022;2023-08-17T09:34:14;24.80;99.90
14397;DHT22;50653;47.810;13.022;2023-08-17T09:36:41;24.70;99.90
14397;DHT22;50653;47.810;13.022;2023-08-17T09:39:06;24.70;99.90
14397;DHT22;50653;47.810;13.022;2023-08-17T09:41:40;24.80;99.90
14397;DHT22;50653;47.810;13.022;2023-08-17T09:44:06;24.90;99.90
14397;DHT22;50653;47.810;13.022;2023-08-17T09:46:32;24.70;99.90
14397;DHT22;50653;47.810;13.022;2023-08-17T09:48:58;24.70;99.90
14397;DHT22;50653;47.810;13.022;2023-08-17T09:51:24;24.60;99.90
14397;DHT22;50653;47.810;13.022;2023-08-17T09:53:53;24.70;99.90
14397;DHT22;50653;47.810;13.022;2023-08-17T09:56:23;24.90;99.90
14397;DHT22;50653;47.810;13.022;2023-08-17T09:58:50;25.10;99.90
14397;DHT22;50653;47.810;13.022;2023-08-17T10:01:16;25.20;99.90
14397;DHT22;50653;47.810;13.022;2023-08-17T10:03:43;25.20;99.90
14397;DHT22;50653;47.810;13.022;2023-08-17T10:06:13;25.40;99.90
14397;DHT22;50653;47.810;13.022;2023-08-17T10:08:46;25.30;99.90
14397;DHT22;50653;47.810;13.022;2023-08-17T10:11:16;25.40;99.90
14397;DHT22;50653;47.810;13.022;2023-08-17T10:13:57;25.50;99.90
14397;DHT22;50653;47.810;13.022;2023-08-17T10:16:28;25.60;99.90
14397;DHT22;50653;47.810;13.022;2023-08-17T10:19:05;25.60;99.90
14397;DHT22;50653;47.810;13.022;2023-08-17T10:21:54;25.50;99.90
14397;DHT22;50653;47.810;13.022;2023-08-17T10:24:23;25.60;99.90
14397;DHT22;50653;47.810;13.022;2023-08-17T10:26:49;25.70;99.90
14397;DHT22;50653;47.810;13.022;2023-08-17T10:29:15;25.60;99.90
14397;DHT22;50653;47.810;13.022;2023-08-17T10:31:44;25.50;99.90
14397;DHT22;50653;47.810;13.022;2023-08-17T10:34:13;25.60;99.90
14397;DHT22;50653;47.810;13.022;2023-08-17T10:36:39;25.70;99.90
14397;DHT22;50653;47.810;13.022;2023-08-17T10:39:23;25.80;99.90
14397;DHT22;50653;47.810;13.022;2023-08-17T10:41:50;25.80;99.90
14397;DHT22;50653;47.810;13.022;2023-08-17T10:44:39;25.80;99.90
14397;DHT22;50653;47.810;13.022;2023-08-17T10:49:44;25.80;99.90
14397;DHT22;50653;47.810;13.022;2023-08-17T10:52:09;25.90;99.90
14397;DHT22;50653;47.810;13.022;2023-08-17T10:54:39;25.90;99.90
14397;DHT22;50653;47.810;13.022;2023-08-17T10:57:24;26.00;99.90
14397;DHT22;50653;47.810;13.022;2023-08-17T11:02:37;25.90;99.90
14397;DHT22;50653;47.810;13.022;2023-08-17T11:05:04;26.00;99.90
14397;DHT22;50653;47.810;13.022;2023-08-17T11:07:43;26.10;99.90
14397;DHT22;50653;47.810;13.022;2023-08-17T11:12:44;26.10;99.90
14397;DHT22;50653;47.810;13.022;2023-08-17T11:15:10;26.10;99.90
14397;DHT22;50653;47.810;13.022;2023-08-17T11:17:36;26.20;99.90
14397;DHT22;50653;47.810;13.022;2023-08-17T11:20:02;26.30;99.90
14397;DHT22;50653;47.810;13.022;2023-08-17T11:22:29;26.30;99.90
14397;DHT22;50653;47.810;13.022;2023-08-17T11:24:54;26.30;99.90
14397;DHT22;50653;47.810;13.022;2023-08-17T11:27:21;26.30;99.90
14397;DHT22;50653;47.810;13.022;2023-08-17T11:29:47;26.50;99.90
14397;DHT22;50653;47.810;13.022;2023-08-17T11:32:16;26.40;99.90
14397;DHT22;50653;47.810;13.022;2023-08-17T11:34:42;26.40;99.90
14397;DHT22;50653;47.810;13.022;2023-08-17T11:37:07;26.50;99.90
14397;DHT22;50653;47.810;13.022;2023-08-17T11:39:34;26.40;99.90
14397;DHT22;50653;47.810;13.022;2023-08-17T11:42:00;26.40;99.90
14397;DHT22;50653;47.810;13.022;2023-08-17T11:44:26;26.60;99.90
14397;DHT22;50653;47.810;13.022;2023-08-17T11:46:51;26.60;99.90
14397;DHT22;50653;47.810;13.022;2023-08-17T11:49:17;26.70;99.90
14397;DHT22;50653;47.810;13.022;2023-08-17T11:51:43;26.80;99.90
14397;DHT22;50653;47.810;13.022;2023-08-17T11:54:08;26.80;99.90
14397;DHT22;50653;47.810;13.022;2023-08-17T11:56:34;26.90;99.90
14397;DHT22;50653;47.810;13.022;2023-08-17T11:59:09;26.70;99.90
14397;DHT22;50653;47.810;13.022;2023-08-17T12:01:39;26.80;99.90
14397;DHT22;50653;47.810;13.022;2023-08-17T12:04:08;27.00;99.90
14397;DHT22;50653;47.810;13.022;2023-08-17T12:06:34;27.10;99.90
14397;DHT22;50653;47.810;13.022;2023-08-17T12:09:00;27.20;99.90
14397;DHT22;50653;47.810;13.022;2023-08-17T12:11:30;27.20;99.90
14397;DHT22;50653;47.810;13.022;2023-08-17T12:13:55;27.10;99.90
14397;DHT22;50653;47.810;13.022;2023-08-17T12:16:22;27.20;99.90
14397;DHT22;50653;47.810;13.022;2023-08-17T12:18:50;27.30;99.90
14397;DHT22;50653;47.810;13.022;2023-08-17T12:21:15;27.30;99.90
14397;DHT22;50653;47.810;13.022;2023-08-17T12:23:56;27.30;99.90
14397;DHT22;50653;47.810;13.022;2023-08-17T12:26:22;27.30;99.90
14397;DHT22;50653;47.810;13.022;2023-08-17T12:28:49;27.10;99.90
14397;DHT22;50653;47.810;13.022;2023-08-17T12:31:21;27.10;99.90
14397;DHT22;50653;47.810;13.022;2023-08-17T12:33:47;27.20;99.90
14397;DHT22;50653;47.810;13.022;2023-08-17T12:36:12;27.30;99.90
14397;DHT22;50653;47.810;13.022;2023-08-17T12:38:38;27.40;99.90
14397;DHT22;50653;47.810;13.022;2023-08-17T12:41:10;27.50;99.90
14397;DHT22;50653;47.810;13.022;2023-08-17T12:43:37;27.60;99.90
14397;DHT22;50653;47.810;13.022;2023-08-17T12:46:03;27.50;99.90
14397;DHT22;50653;47.810;13.022;2023-08-17T12:48:29;27.40;99.90
14397;DHT22;50653;47.810;13.022;2023-08-17T12:50:54;27.40;99.90
14397;DHT22;50653;47.810;13.022;2023-08-17T12:53:20;27.40;99.90
14397;DHT22;50653;47.810;13.022;2023-08-17T12:55:45;27.40;99.90
14397;DHT22;50653;47.810;13.022;2023-08-17T12:58:12;27.50;99.90
14397;DHT22;50653;47.810;13.022;2023-08-17T13:00:37;27.70;99.90
14397;DHT22;50653;47.810;13.022;2023-08-17T13:03:03;27.80;99.90
14397;DHT22;50653;47.810;13.022;2023-08-17T13:05:33;27.80;99.90
14397;DHT22;50653;47.810;13.022;2023-08-17T13:07:59;28.00;99.90
14397;DHT22;50653;47.810;13.022;2023-08-17T13:10:24;27.90;99.90
14397;DHT22;50653;47.810;13.022;2023-08-17T13:12:50;27.90;99.90
14397;DHT22;50653;47.810;13.022;2023-08-17T13:15:21;27.80;99.90
14397;DHT22;50653;47.810;13.022;2023-08-17T13:17:47;28.10;99.90
14397;DHT22;50653;47.810;13.022;2023-08-17T13:20:13;28.20;99.90
14397;DHT22;50653;47.810;13.022;2023-08-17T13:22:38;28.10;99.90
14397;DHT22;50653;47.810;13.022;2023-08-17T13:25:05;28.20;99.90
14397;DHT22;50653;47.810;13.022;2023-08-17T13:27:31;28.30;99.90
14397;DHT22;50653;47.810;13.022;2023-08-17T13:29:56;28.30;99.90
14397;DHT22;50653;47.810;13.022;2023-08-17T13:32:24;28.40;99.90
14397;DHT22;50653;47.810;13.022;2023-08-17T13:34:51;28.40;99.90
14397;DHT22;50653;47.810;13.022;2023-08-17T13:37:16;28.50;99.90
14397;DHT22;50653;47.810;13.022;2023-08-17T13:39:43;28.40;99.40
14397;DHT22;50653;47.810;13.022;2023-08-17T13:42:09;28.60;99.50
14397;DHT22;50653;47.810;13.022;2023-08-17T13:44:34;28.60;99.30
14397;DHT22;50653;47.810;13.022;2023-08-17T13:47:00;28.60;98.90
14397;DHT22;50653;47.810;13.022;2023-08-17T13:49:25;28.70;98.30
14397;DHT22;50653;47.810;13.022;2023-08-17T13:51:53;28.60;98.20
14397;DHT22;50653;47.810;13.022;2023-08-17T13:54:19;28.60;96.30
14397;DHT22;50653;47.810;13.022;2023-08-17T13:56:45;28.70;96.70
14397;DHT22;50653;47.810;13.022;2023-08-17T13:59:10;28.70;97.40
14397;DHT22;50653;47.810;13.022;2023-08-17T14:01:36;28.70;97.20
14397;DHT22;50653;47.810;13.022;2023-08-17T14:04:02;28.50;96.60
14397;DHT22;50653;47.810;13.022;2023-08-17T14:06:29;28.40;96.90
14397;DHT22;50653;47.810;13.022;2023-08-17T14:08:55;28.60;94.70
14397;DHT22;50653;47.810;13.022;2023-08-17T14:11:20;28.80;96.60
14397;DHT22;50653;47.810;13.022;2023-08-17T14:13:46;29.00;94.60
14397;DHT22;50653;47.810;13.022;2023-08-17T14:16:14;29.10;94.50
14397;DHT22;50653;47.810;13.022;2023-08-17T14:18:40;29.20;93.20
14397;DHT22;50653;47.810;13.022;2023-08-17T14:21:06;29.20;92.30
14397;DHT22;50653;47.810;13.022;2023-08-17T14:23:31;29.20;94.00
14397;DHT22;50653;47.810;13.022;2023-08-17T14:25:57;29.00;93.80
14397;DHT22;50653;47.810;13.022;2023-08-17T14:28:22;29.10;93.10
14397;DHT22;50653;47.810;13.022;2023-08-17T14:30:48;29.10;92.60
14397;DHT22;50653;47.810;13.022;2023-08-17T14:33:14;29.20;92.30
14397;DHT22;50653;47.810;13.022;2023-08-17T14:36:24;29.20;91.60
14397;DHT22;50653;47.810;13.022;2023-08-17T14:38:49;29.20;92.70
14397;DHT22;50653;47.810;13.022;2023-08-17T14:41:15;29.00;94.10
14397;DHT22;50653;47.810;13.022;2023-08-17T14:43:41;28.90;94.50
14397;DHT22;50653;47.810;13.022;2023-08-17T14:46:06;28.90;93.30
14397;DHT22;50653;47.810;13.022;2023-08-17T14:48:32;29.10;92.90
14397;DHT22;50653;47.810;13.022;2023-08-17T14:50:57;29.00;94.30
14397;DHT22;50653;47.810;13.022;2023-08-17T14:53:23;29.00;95.70
14397;DHT22;50653;47.810;13.022;2023-08-17T14:55:49;29.00;95.00
14397;DHT22;50653;47.810;13.022;2023-08-17T14:58:14;28.90;94.00
14397;DHT22;50653;47.810;13.022;2023-08-17T15:00:41;28.90;94.00
14397;DHT22;50653;47.810;13.022;2023-08-17T15:03:07;29.10;93.30
14397;DHT22;50653;47.810;13.022;2023-08-17T15:05:32;29.20;95.80
14397;DHT22;50653;47.810;13.022;2023-08-17T15:08:01;29.30;95.60
14397;DHT22;50653;47.810;13.022;2023-08-17T15:10:27;29.40;94.00
14397;DHT22;50653;47.810;13.022;2023-08-17T15:12:53;29.40;94.90
14397;DHT22;50653;47.810;13.022;2023-08-17T15:15:19;29.40;92.70
14397;DHT22;50653;47.810;13.022;2023-08-17T15:17:44;29.40;92.80
14397;DHT22;50653;47.810;13.022;2023-08-17T15:20:10;29.30;94.10
14397;DHT22;50653;47.810;13.022;2023-08-17T15:22:36;29.40;93.40